Time;durP1;ratioP1;P1;durP2;ratioP2;P2;SDS_P1;SDS_P2;PMS_P1;PMS_P2;Temp;Humidity;BMP_temperature;BMP_pressure;BME280_temperature;BME280_humidity;BME280_pressure;Samples;Min_cycle;Max_cycle;Signal;HPM_P1;HPM_P2
2022/11/19 00:04:43;;;;;;;5.45;3.20;;;15.90;74.20;;;;;;10451355;28;20043;-56
2022/11/19 00:09:44;;;;;;;5.55;3.38;;;15.90;74.10;;;;;;10450126;28;20052;-56
2022/11/19 00:14:45;;;;;;;5.45;3.42;;;15.90;74.10;;;;;;10449392;28;20053;-56
2022/11/19 00:19:45;;;;;;;3.88;3.10;;;15.80;74.10;;;;;;10450918;28;20053;-57
2022/11/19 00:24:46;;;;;;;5.80;2.90;;;15.80;74.20;;;;;;10448103;28;20044;-57
2022/11/19 00:29:46;;;;;;;3.92;2.72;;;15.80;74.20;;;;;;10449179;28;20151;-55
2022/11/19 00:34:47;;;;;;;4.45;2.80;;;15.80;74.10;;;;;;10449810;28;20073;-56
2022/11/19 00:39:48;;;;;;;4.25;3.20;;;15.80;73.80;;;;;;10448553;28;20068;-56
2022/11/19 00:44:49;;;;;;;4.28;3.20;;;15.90;73.60;;;;;;10447719;28;20120;-56
2022/11/19 00:49:50;;;;;;;3.95;2.97;;;15.90;73.50;;;;;;10449709;28;20103;-55
2022/11/19 00:54:50;;;;;;;4.05;3.00;;;15.80;73.60;;;;;;10447788;28;20029;-56
2022/11/19 00:59:51;;;;;;;4.38;3.00;;;15.90;73.30;;;;;;10481477;28;20135;-55
2022/11/19 01:04:53;;;;;;;4.72;2.90;;;16.00;72.90;;;;;;10448573;28;20057;-56
2022/11/19 01:09:53;;;;;;;4.03;3.20;;;16.10;72.90;;;;;;10430879;28;20108;-56
2022/11/19 01:14:54;;;;;;;4.68;2.80;;;16.00;72.90;;;;;;10447334;28;20068;-56
2022/11/19 01:19:54;;;;;;;4.30;2.88;;;15.90;73.00;;;;;;10446822;28;20127;-56
2022/11/19 01:24:55;;;;;;;4.80;3.17;;;15.90;73.00;;;;;;10447717;28;20069;-55
2022/11/19 01:29:56;;;;;;;4.80;2.85;;;16.00;72.90;;;;;;10448086;28;20668;-55
2022/11/19 01:34:56;;;;;;;3.60;3.00;;;16.00;72.80;;;;;;10445796;28;20053;-54
2022/11/19 01:39:57;;;;;;;3.80;2.90;;;15.90;72.90;;;;;;10447655;28;20567;-56
2022/11/19 01:45:06;;;;;;;4.30;2.70;;;15.90;73.00;;;;;;10446173;28;20071;-56
2022/11/19 01:50:07;;;;;;;4.22;3.03;;;15.90;72.80;;;;;;10429483;28;20025;-56
2022/11/19 01:55:08;;;;;;;3.95;2.70;;;15.90;72.80;;;;;;10445764;28;20021;-56
2022/11/19 02:00:11;;;;;;;4.97;3.28;;;15.90;72.90;;;;;;10445894;28;20150;-58
2022/11/19 02:05:12;;;;;;;3.78;2.40;;;15.80;73.00;;;;;;10446667;28;20403;-56
2022/11/19 02:10:12;;;;;;;5.07;2.83;;;15.80;73.00;;;;;;10445855;28;20021;-55
2022/11/19 02:16:01;;;;;;;4.28;3.38;;;15.90;72.60;;;;;;10444865;28;20013;-56
2022/11/19 02:21:15;;;;;;;4.05;3.60;;;16.00;72.40;;;;;;10453402;28;20091;-55
2022/11/19 02:27:22;;;;;;;4.05;3.05;;;16.00;72.40;;;;;;10441874;28;20032;-56
2022/11/19 02:32:35;;;;;;;4.45;3.10;;;15.90;72.40;;;;;;10445441;28;20476;-56
2022/11/19 02:37:45;;;;;;;5.13;3.47;;;15.90;72.60;;;;;;10445064;28;20835;-56
2022/11/19 02:43:17;;;;;;;3.78;2.95;;;15.80;72.50;;;;;;10445400;28;20029;-56
2022/11/19 02:48:34;;;;;;;4.63;2.90;;;16.00;72.10;;;;;;10470196;28;20032;-56
2022/11/19 02:53:35;;;;;;;3.90;2.58;;;16.00;71.90;;;;;;10453033;28;20079;-56
2022/11/19 03:04:30;;;;;;;3.35;2.53;;;16.00;71.70;;;;;;10453225;28;20037;-55
2022/11/19 03:09:33;;;;;;;5.68;3.88;;;15.90;71.80;;;;;;10443179;28;20009;-55
2022/11/19 03:21:12;;;;;;;4.30;3.63;;;15.80;72.00;;;;;;10443732;28;20030;-57
2022/11/19 03:26:36;;;;;;;5.40;3.75;;;15.80;72.00;;;;;;10447560;28;20123;-57
2022/11/19 03:31:39;;;;;;;4.80;3.40;;;15.90;71.80;;;;;;10451509;28;20057;-56
2022/11/19 03:36:42;;;;;;;5.65;4.05;;;15.90;71.60;;;;;;10434641;28;20816;-56
2022/11/19 03:41:47;;;;;;;4.18;2.83;;;15.90;71.50;;;;;;10452240;28;20021;-55
2022/11/19 03:46:54;;;;;;;4.45;3.17;;;16.00;71.30;;;;;;10451602;28;20032;-56
2022/11/19 03:52:07;;;;;;;4.20;3.20;;;16.00;71.10;;;;;;10450910;28;20021;-56
2022/11/19 03:57:11;;;;;;;4.93;3.80;;;16.00;71.10;;;;;;10450164;28;20031;-56
2022/11/19 04:02:13;;;;;;;4.82;3.55;;;16.00;71.10;;;;;;10450551;28;20534;-56
2022/11/19 04:07:23;;;;;;;5.72;3.15;;;15.90;71.20;;;;;;10451026;28;20108;-56
2022/11/19 04:12:24;;;;;;;6.05;4.15;;;15.90;71.40;;;;;;10450069;28;20036;-55
2022/11/19 04:17:25;;;;;;;4.70;3.75;;;15.90;71.30;;;;;;10449633;28;20083;-56
2022/11/19 04:22:26;;;;;;;4.72;3.20;;;16.00;71.00;;;;;;10449418;28;20017;-55
2022/11/19 04:27:26;;;;;;;4.15;3.53;;;16.10;70.80;;;;;;10450392;28;20064;-55
2022/11/19 04:32:27;;;;;;;5.03;3.90;;;16.00;70.70;;;;;;10449201;28;20064;-56
2022/11/19 04:37:28;;;;;;;4.57;3.30;;;16.00;70.80;;;;;;10431451;28;20506;-56
2022/11/19 04:42:28;;;;;;;4.15;3.35;;;15.90;70.80;;;;;;10447934;28;20111;-56
2022/11/19 04:47:29;;;;;;;5.97;4.20;;;15.90;70.80;;;;;;10447898;28;20375;-55
2022/11/19 04:52:31;;;;;;;4.88;3.53;;;15.90;70.90;;;;;;10448591;28;20101;-56
2022/11/19 04:57:32;;;;;;;5.68;3.92;;;15.90;70.70;;;;;;10446914;28;20025;-56
2022/11/19 05:02:32;;;;;;;4.50;3.85;;;15.90;70.60;;;;;;10445494;28;20017;-54
2022/11/19 05:07:33;;;;;;;4.68;3.47;;;16.00;70.40;;;;;;10449238;28;20379;-56
2022/11/19 05:12:34;;;;;;;5.22;4.07;;;16.00;70.30;;;;;;10448327;28;20516;-57
2022/11/19 05:17:34;;;;;;;5.03;4.22;;;16.00;70.40;;;;;;10446690;28;20158;-56
2022/11/19 05:22:36;;;;;;;4.75;3.75;;;16.00;70.60;;;;;;10447137;28;20049;-54
2022/11/19 05:27:36;;;;;;;5.60;4.28;;;15.90;70.60;;;;;;10447536;28;20040;-56
2022/11/19 05:32:37;;;;;;;6.22;5.05;;;16.00;70.40;;;;;;10447880;28;20017;-56
2022/11/19 05:37:38;;;;;;;6.30;5.53;;;16.00;70.20;;;;;;10445097;28;20699;-56
2022/11/19 05:42:38;;;;;;;6.70;5.00;;;16.10;70.20;;;;;;10446833;28;20050;-55
2022/11/19 05:47:39;;;;;;;7.00;6.30;;;16.00;70.30;;;;;;10444373;28;20092;-55
2022/11/19 05:52:40;;;;;;;7.72;6.82;;;16.00;70.40;;;;;;10429837;28;20488;-57
2022/11/19 05:57:40;;;;;;;8.23;7.43;;;16.00;70.20;;;;;;10445435;28;20095;-56
2022/11/19 06:02:41;;;;;;;8.93;7.07;;;16.10;70.20;;;;;;10446591;28;20057;-56
2022/11/19 06:07:42;;;;;;;8.15;7.35;;;16.10;70.10;;;;;;10446023;28;20028;-56
2022/11/19 06:12:45;;;;;;;7.72;7.03;;;16.10;70.20;;;;;;10445376;28;20029;-56
2022/11/19 06:17:46;;;;;;;9.35;7.55;;;16.10;70.40;;;;;;10443875;28;20029;-56
2022/11/19 06:22:47;;;;;;;10.52;8.40;;;16.10;70.60;;;;;;10442987;28;20021;-56
2022/11/19 06:27:48;;;;;;;14.63;8.55;;;16.10;70.90;;;;;;10445026;28;20033;-60
2022/11/19 06:32:48;;;;;;;17.55;8.30;;;16.20;71.30;;;;;;10445986;28;20663;-57
2022/11/19 06:37:49;;;;;;;11.50;7.55;;;16.30;71.70;;;;;;10443186;28;20076;-56
2022/11/19 06:42:50;;;;;;;11.32;8.25;;;16.40;71.60;;;;;;10444565;28;20108;-58
2022/11/19 06:47:50;;;;;;;10.13;8.05;;;16.40;72.10;;;;;;10446925;28;20128;-58
2022/11/19 06:52:51;;;;;;;12.20;7.15;;;16.30;71.70;;;;;;10426600;28;20166;-56
2022/11/19 06:57:51;;;;;;;11.07;8.30;;;16.20;72.60;;;;;;10444638;28;20045;-58
2022/11/19 07:02:52;;;;;;;20.27;7.82;;;16.20;72.20;;;;;;10442677;28;20115;-58
2022/11/19 07:07:53;;;;;;;14.90;8.00;;;16.20;72.40;;;;;;10442264;28;20071;-58
2022/11/19 07:12:53;;;;;;;42.38;9.43;;;16.20;72.70;;;;;;10442376;28;20017;-54
2022/11/19 07:17:54;;;;;;;17.83;8.30;;;16.10;72.50;;;;;;10442150;28;20049;-57
2022/11/19 07:22:55;;;;;;;27.90;9.02;;;16.10;72.80;;;;;;10443321;28;20045;-58
2022/11/19 07:27:55;;;;;;;15.50;7.97;;;16.00;73.00;;;;;;10444400;28;20150;-59
2022/11/19 07:32:57;;;;;;;29.30;10.00;;;15.90;72.60;;;;;;10446411;28;20108;-56
2022/11/19 07:37:57;;;;;;;28.98;9.63;;;15.90;73.30;;;;;;10451920;28;20025;-58
2022/11/19 07:42:58;;;;;;;35.58;9.80;;;16.00;72.90;;;;;;10450353;28;20468;-59
2022/11/19 07:47:58;;;;;;;33.40;8.98;;;16.00;73.10;;;;;;10451673;28;20122;-57
2022/11/19 07:52:59;;;;;;;17.90;9.43;;;15.90;72.80;;;;;;10450274;28;20100;-58
2022/11/19 07:58:00;;;;;;;24.35;8.52;;;15.80;72.70;;;;;;10449560;28;20017;-58
2022/11/19 08:03:01;;;;;;;23.00;9.13;;;15.70;72.90;;;;;;10448505;28;20116;-57
2022/11/19 08:08:02;;;;;;;21.60;8.23;;;15.60;73.20;;;;;;10447298;28;20029;-57
2022/11/19 08:13:03;;;;;;;14.85;7.90;;;15.50;73.30;;;;;;10444292;28;20059;-57
2022/11/19 08:18:14;;;;;;;16.35;7.63;;;15.50;72.70;;;;;;10453923;28;20028;-57
2022/11/19 08:23:14;;;;;;;15.30;7.13;;;15.60;72.30;;;;;;10450250;28;20024;-58
2022/11/19 08:28:15;;;;;;;13.00;7.43;;;15.70;71.80;;;;;;10449644;28;20115;-57
2022/11/19 08:33:16;;;;;;;12.48;6.93;;;15.80;71.70;;;;;;10451819;28;20412;-56
2022/11/19 08:38:17;;;;;;;14.02;7.63;;;15.80;72.00;;;;;;10452955;28;20085;-55
2022/11/19 08:43:18;;;;;;;12.45;6.88;;;15.90;72.10;;;;;;10434096;28;20537;-57
2022/11/19 08:48:19;;;;;;;11.85;6.88;;;16.00;72.20;;;;;;10452175;28;20092;-58
2022/11/19 08:53:19;;;;;;;11.13;6.93;;;15.90;72.30;;;;;;10451238;28;20614;-58
2022/11/19 08:58:20;;;;;;;11.32;6.43;;;15.90;72.70;;;;;;10451848;28;20101;-57
2022/11/19 09:03:21;;;;;;;10.52;6.88;;;15.90;72.80;;;;;;10450538;28;20025;-57
2022/11/19 09:08:21;;;;;;;13.68;7.15;;;15.80;72.90;;;;;;10454299;28;20040;-58
2022/11/19 09:13:23;;;;;;;12.88;7.80;;;15.80;72.70;;;;;;10447587;28;20044;-60
2022/11/19 09:18:23;;;;;;;16.25;8.75;;;15.80;72.20;;;;;;10450274;28;20047;-62
2022/11/19 09:23:26;;;;;;;18.75;6.00;;;15.80;72.20;;;;;;10451354;28;20029;-59
2022/11/19 09:28:28;;;;;;;19.58;7.90;;;15.90;72.60;;;;;;10438510;28;20037;-60
2022/11/19 09:33:32;;;;;;;21.65;8.00;;;15.80;73.30;;;;;;10450761;28;20045;-59
2022/11/19 09:38:35;;;;;;;16.38;8.00;;;15.90;72.80;;;;;;10449042;28;20025;-60
2022/11/19 09:44:26;;;;;;;15.60;7.28;;;16.00;73.10;;;;;;10448912;28;20092;-58
2022/11/19 09:49:32;;;;;;;;;;;16.10;73.20;;;;;;10411744;28;20045;-61
2022/11/19 09:54:33;;;;;;;20.27;8.10;;;15.90;73.40;;;;;;10481023;28;19983;-60
2022/11/19 09:59:39;;;;;;;20.05;8.00;;;15.90;73.10;;;;;;10449095;28;20100;-60
2022/11/19 10:04:40;;;;;;;18.90;7.88;;;15.80;73.60;;;;;;10448790;28;20451;-60
2022/11/19 10:10:25;;;;;;;15.07;8.50;;;15.90;73.80;;;;;;10449259;28;20100;-59
2022/11/19 10:15:42;;;;;;;17.63;7.93;;;15.90;73.90;;;;;;10449084;28;20036;-60
2022/11/19 10:21:18;;;;;;;18.73;7.25;;;15.90;73.60;;;;;;10448180;28;20029;-59
2022/11/19 10:26:34;;;;;;;15.25;6.68;;;16.00;73.50;;;;;;10448961;28;20037;-60
2022/11/19 10:31:42;;;;;;;19.15;7.18;;;16.00;73.50;;;;;;10449983;28;20021;-61
2022/11/19 10:36:56;;;;;;;20.98;7.15;;;16.10;73.60;;;;;;10432580;28;20599;-62
2022/11/19 10:42:05;;;;;;;21.58;7.80;;;16.00;73.90;;;;;;10448440;28;20029;-62
2022/11/19 10:47:38;;;;;;;17.00;7.88;;;16.00;74.30;;;;;;10449199;28;20079;-60
2022/11/19 10:52:45;;;;;;;16.13;7.38;;;16.10;73.40;;;;;;10424382;28;20527;-59
2022/11/19 10:57:47;;;;;;;17.05;6.53;;;16.10;73.40;;;;;;10447206;28;20103;-58
2022/11/19 11:03:00;;;;;;;22.90;7.75;;;16.10;73.40;;;;;;10447468;28;20031;-57
2022/11/19 11:08:10;;;;;;;12.60;6.22;;;16.20;73.80;;;;;;10434463;28;20060;-58
2022/11/19 11:18:39;;;;;;;15.40;5.80;;;16.10;73.40;;;;;;10455434;28;20033;-59
2022/11/19 11:23:53;;;;;;;12.32;6.10;;;16.20;73.10;;;;;;10449334;28;20020;-56
2022/11/19 11:29:01;;;;;;;20.67;7.55;;;16.20;73.10;;;;;;10445469;28;20032;-59
2022/11/19 11:34:04;;;;;;;17.38;5.85;;;16.20;72.80;;;;;;10452730;28;20513;-61
2022/11/19 11:39:05;;;;;;;14.23;6.45;;;16.30;72.60;;;;;;10454358;28;20075;-57
2022/11/19 11:44:15;;;;;;;16.63;6.40;;;16.40;72.50;;;;;;10454444;28;20090;-58
2022/11/19 11:49:43;;;;;;;14.80;6.25;;;16.40;72.30;;;;;;10453835;28;20021;-57
2022/11/19 11:54:57;;;;;;;13.60;6.60;;;16.50;72.40;;;;;;10484344;28;20021;-59
2022/11/19 12:00:01;;;;;;;23.20;7.57;;;16.50;72.40;;;;;;10484552;28;20021;-60
2022/11/19 12:05:06;;;;;;;18.58;6.75;;;16.40;73.20;;;;;;10453379;28;20035;-60
2022/11/19 12:10:57;;;;;;;21.65;7.00;;;16.40;73.20;;;;;;10436616;28;20515;-61
2022/11/19 12:16:13;;;;;;;25.27;7.63;;;16.40;73.60;;;;;;10450621;28;20373;-59
2022/11/19 12:22:02;;;;;;;20.77;6.13;;;16.50;73.60;;;;;;10453992;28;20036;-62
2022/11/19 12:27:36;;;;;;;40.10;8.27;;;16.50;73.80;;;;;;10451851;28;20128;-61
2022/11/19 12:33:38;;;;;;;25.88;6.60;;;16.40;74.30;;;;;;10452453;28;20142;-63
2022/11/19 12:38:53;;;;;;;24.05;6.43;;;16.40;74.40;;;;;;10402983;28;20044;-59
2022/11/19 12:43:58;;;;;;;15.27;5.15;;;16.40;74.50;;;;;;10459932;28;20024;-58
2022/11/19 12:49:40;;;;;;;21.77;6.13;;;16.40;74.70;;;;;;10451704;28;20009;-62
2022/11/19 12:55:25;;;;;;;19.83;7.25;;;16.30;74.30;;;;;;10450795;28;20137;-60
2022/11/19 13:00:28;;;;;;;17.55;5.53;;;16.20;74.40;;;;;;10442604;28;20035;-60
2022/11/19 13:05:57;;;;;;;11.15;4.95;;;16.10;74.60;;;;;;10448819;28;20438;-60
2022/11/19 13:11:24;;;;;;;9.70;4.97;;;16.10;74.70;;;;;;10445054;28;20033;-60
2022/11/19 13:16:29;;;;;;;11.32;5.47;;;16.00;74.80;;;;;;10442843;28;20045;-60
2022/11/19 13:22:03;;;;;;;11.95;5.05;;;16.00;75.00;;;;;;10449116;28;20028;-60
2022/11/19 13:27:09;;;;;;;13.15;4.88;;;15.90;74.80;;;;;;10449974;28;20403;-58
2022/11/19 13:32:25;;;;;;;18.25;5.40;;;15.90;75.00;;;;;;10449707;28;20634;-60
2022/11/19 13:37:42;;;;;;;16.88;5.30;;;15.90;75.00;;;;;;10449857;28;20040;-59
2022/11/19 13:48:16;;;;;;;13.00;4.87;;;15.80;75.00;;;;;;10443402;28;20091;-59
2022/11/19 13:53:44;;;;;;;23.60;6.30;;;15.80;74.70;;;;;;10445349;28;20025;-59
2022/11/19 13:58:49;;;;;;;14.02;4.50;;;15.70;74.60;;;;;;10446007;28;20068;-58
2022/11/19 14:04:06;;;;;;;7.38;4.53;;;15.70;74.80;;;;;;10444936;28;20028;-59
2022/11/19 14:09:57;;;;;;;6.88;4.30;;;15.70;74.70;;;;;;10446184;28;20025;-59
2022/11/19 14:26:20;;;;;;;8.18;4.82;;;15.60;74.50;;;;;;10445932;28;20049;-59
2022/11/19 14:31:21;;;;;;;8.90;3.85;;;15.50;74.40;;;;;;10445317;28;20040;-59
2022/11/19 14:36:47;;;;;;;7.93;4.53;;;15.50;74.40;;;;;;10444762;28;20080;-59
2022/11/19 14:42:10;;;;;;;9.32;4.75;;;15.50;74.40;;;;;;10448341;28;20033;-59
2022/11/19 14:47:23;;;;;;;8.40;4.40;;;15.40;74.30;;;;;;10459122;28;20033;-58
2022/11/19 14:52:48;;;;;;;8.82;4.72;;;15.40;73.90;;;;;;10452977;28;20017;-59
2022/11/19 14:57:58;;;;;;;21.05;4.72;;;15.40;73.90;;;;;;10452043;28;20101;-56
2022/11/19 15:03:01;;;;;;;19.67;5.45;;;15.60;73.90;;;;;;10438332;28;20021;-59
2022/11/19 15:08:17;;;;;;;11.27;4.57;;;15.70;73.90;;;;;;10460915;28;20040;-59
2022/11/19 15:13:25;;;;;;;13.30;4.45;;;15.80;74.30;;;;;;10443330;28;20040;-59
2022/11/19 15:18:43;;;;;;;14.32;4.55;;;15.70;74.70;;;;;;10446746;28;20082;-58
2022/11/19 15:24:05;;;;;;;12.95;4.97;;;15.70;74.60;;;;;;10449628;28;20563;-58
2022/11/19 15:30:05;;;;;;;22.55;5.07;;;15.70;74.80;;;;;;10443048;28;20037;-60
2022/11/19 15:35:30;;;;;;;20.38;4.15;;;15.60;74.80;;;;;;10448996;28;20492;-59
2022/11/19 15:40:33;;;;;;;13.05;3.78;;;15.60;74.70;;;;;;10446880;28;20029;-60
2022/11/19 15:45:45;;;;;;;9.13;3.72;;;15.60;74.40;;;;;;10436282;28;20032;-59
2022/11/19 15:50:47;;;;;;;19.50;4.93;;;15.60;74.00;;;;;;10439749;28;20029;-57
2022/11/19 15:56:02;;;;;;;11.43;3.90;;;15.70;74.10;;;;;;10445425;28;20025;-60
2022/11/19 16:01:04;;;;;;;12.77;4.40;;;15.60;74.50;;;;;;10447208;28;20052;-59
2022/11/19 16:06:13;;;;;;;11.23;5.13;;;15.50;75.00;;;;;;10439842;28;20037;-59
2022/11/19 16:22:01;;;;;;;11.77;3.95;;;15.50;75.00;;;;;;10443265;28;20040;-59
2022/11/19 16:27:08;;;;;;;10.82;4.47;;;15.50;75.00;;;;;;10446548;28;20115;-59
2022/11/19 16:32:19;;;;;;;8.70;4.13;;;15.50;74.90;;;;;;10437538;28;20051;-59
2022/11/19 16:37:21;;;;;;;10.98;4.13;;;15.50;74.90;;;;;;10411009;28;1047549;-59
2022/11/19 16:42:27;;;;;;;6.95;4.13;;;15.50;74.80;;;;;;10464641;28;20046;-59
2022/11/19 16:47:48;;;;;;;13.10;4.18;;;15.40;74.80;;;;;;10444991;28;20033;-60
2022/11/19 16:52:49;;;;;;;11.88;4.25;;;15.40;74.90;;;;;;10431805;28;20017;-60
2022/11/19 16:57:54;;;;;;;7.18;4.10;;;15.40;74.30;;;;;;10448911;28;20026;-59
2022/11/19 17:02:56;;;;;;;9.60;5.25;;;15.50;72.20;;;;;;10447035;28;20013;-60
2022/11/19 17:08:18;;;;;;;17.10;7.20;;;15.90;72.30;;;;;;10430282;28;20392;-59
2022/11/19 17:13:18;;;;;;;12.27;6.03;;;16.10;72.80;;;;;;10448933;28;20060;-62
2022/11/19 17:18:31;;;;;;;10.98;6.93;;;16.20;72.00;;;;;;10447366;28;20120;-59
2022/11/19 17:23:36;;;;;;;12.35;7.82;;;16.10;71.70;;;;;;10447077;28;20074;-62
2022/11/19 17:28:39;;;;;;;23.23;8.20;;;16.10;72.20;;;;;;10430670;28;20021;-60
2022/11/19 17:34:03;;;;;;;23.60;8.75;;;16.00;72.40;;;;;;10447810;28;20388;-58
2022/11/19 17:39:12;;;;;;;18.40;8.27;;;16.00;72.80;;;;;;10431394;28;20391;-58
2022/11/19 17:44:34;;;;;;;16.27;8.20;;;15.90;73.30;;;;;;10446629;28;20043;-60
2022/11/19 17:49:35;;;;;;;15.75;7.18;;;15.90;72.80;;;;;;10446253;28;20622;-57
2022/11/19 17:54:36;;;;;;;14.27;8.38;;;15.90;73.30;;;;;;10446137;28;20028;-56
2022/11/19 17:59:36;;;;;;;18.38;9.45;;;15.90;73.00;;;;;;10446945;28;20052;-58
2022/11/19 18:04:37;;;;;;;15.27;10.07;;;15.90;72.90;;;;;;10446384;28;20572;-57
2022/11/19 18:09:39;;;;;;;15.30;9.30;;;15.80;72.40;;;;;;10447192;28;20739;-57
2022/11/19 18:14:40;;;;;;;10.48;8.50;;;15.60;72.00;;;;;;10445425;28;20032;-58
2022/11/19 18:19:41;;;;;;;12.45;8.82;;;15.50;72.20;;;;;;10445150;28;20017;-57
2022/11/19 18:24:42;;;;;;;12.65;8.23;;;15.40;72.60;;;;;;10445664;28;20037;-57
2022/11/19 18:29:42;;;;;;;16.23;8.68;;;15.50;71.90;;;;;;10444579;28;20075;-59
2022/11/19 18:34:44;;;;;;;13.88;8.50;;;15.60;71.70;;;;;;10444957;28;20060;-57
2022/11/19 18:39:45;;;;;;;15.35;7.88;;;15.60;71.90;;;;;;10431983;28;20021;-57
2022/11/19 18:44:46;;;;;;;17.15;7.97;;;15.70;72.10;;;;;;10444469;28;20167;-57
2022/11/19 18:49:46;;;;;;;11.85;8.20;;;15.80;72.00;;;;;;10445219;28;20120;-57
2022/11/19 18:54:47;;;;;;;8.23;7.32;;;15.90;71.90;;;;;;10444489;28;20115;-57
2022/11/19 18:59:48;;;;;;;12.27;7.13;;;15.90;71.20;;;;;;10444480;28;20441;-57
2022/11/19 19:04:48;;;;;;;10.30;7.05;;;15.80;70.80;;;;;;10446686;28;20085;-57
2022/11/19 19:09:49;;;;;;;16.60;7.95;;;15.80;70.80;;;;;;10445618;28;20056;-58
2022/11/19 19:14:53;;;;;;;11.55;7.10;;;15.70;70.80;;;;;;10444160;28;20335;-58
2022/11/19 19:19:54;;;;;;;11.73;6.97;;;15.70;70.90;;;;;;10445190;28;20086;-58
2022/11/19 19:24:54;;;;;;;11.10;7.10;;;15.60;70.90;;;;;;10443824;28;20128;-57
2022/11/19 19:29:55;;;;;;;9.73;6.60;;;15.70;70.60;;;;;;10433746;28;20108;-57
2022/11/19 19:34:56;;;;;;;8.50;5.97;;;15.70;70.30;;;;;;10447286;28;20068;-57
2022/11/19 19:39:57;;;;;;;8.15;6.35;;;15.80;70.40;;;;;;10433642;28;20167;-57
2022/11/19 19:44:57;;;;;;;9.45;6.43;;;15.90;69.60;;;;;;10440344;28;20111;-58
2022/11/19 19:49:58;;;;;;;10.98;5.68;;;15.90;69.60;;;;;;10442061;28;20755;-57
2022/11/19 19:54:58;;;;;;;7.10;5.40;;;15.90;69.60;;;;;;10449585;28;20109;-58
2022/11/19 19:59:59;;;;;;;8.98;6.85;;;15.90;69.40;;;;;;10446046;28;20151;-57
2022/11/19 20:05:00;;;;;;;8.32;5.53;;;15.90;69.30;;;;;;10446111;28;20025;-57
2022/11/19 20:10:00;;;;;;;10.30;6.05;;;15.90;69.10;;;;;;10450270;28;20044;-58
2022/11/19 20:15:01;;;;;;;9.27;5.30;;;15.90;68.80;;;;;;10437978;28;20114;-57
2022/11/19 20:20:02;;;;;;;8.63;4.70;;;16.00;68.60;;;;;;10422906;28;20035;-57
2022/11/19 20:25:04;;;;;;;7.70;5.40;;;16.00;68.40;;;;;;10451537;28;20033;-58
2022/11/19 20:30:05;;;;;;;9.30;5.20;;;16.00;68.50;;;;;;10449846;28;20005;-58
2022/11/19 20:35:06;;;;;;;6.60;4.70;;;15.90;68.60;;;;;;10447721;28;20416;-58
2022/11/19 20:40:08;;;;;;;5.82;4.53;;;15.90;68.40;;;;;;10448583;28;20021;-57
2022/11/19 20:45:08;;;;;;;8.20;4.85;;;15.90;68.40;;;;;;10447739;28;20056;-57
2022/11/19 20:50:09;;;;;;;7.60;5.10;;;15.90;68.20;;;;;;10447156;28;20017;-58
2022/11/19 20:55:11;;;;;;;5.85;4.80;;;15.80;68.30;;;;;;10434834;28;20071;-57
2022/11/19 21:00:12;;;;;;;7.38;3.75;;;15.80;68.40;;;;;;10446776;28;20020;-58
2022/11/19 21:05:13;;;;;;;5.93;4.03;;;15.70;68.50;;;;;;10448237;28;20037;-57
2022/11/19 21:10:14;;;;;;;6.55;4.22;;;15.80;68.00;;;;;;10460218;28;20021;-60
2022/11/19 21:15:15;;;;;;;8.27;4.43;;;15.80;68.00;;;;;;10447936;28;20025;-61
2022/11/19 21:20:16;;;;;;;5.25;3.92;;;15.70;68.10;;;;;;10446124;28;20052;-58
2022/11/19 21:25:17;;;;;;;6.47;3.80;;;15.80;67.90;;;;;;10444969;28;20036;-57
2022/11/19 21:30:18;;;;;;;8.50;4.75;;;15.80;67.50;;;;;;10428428;28;20046;-58
2022/11/19 21:35:18;;;;;;;6.10;4.43;;;15.80;67.30;;;;;;10445524;28;20053;-58
2022/11/19 21:40:19;;;;;;;8.07;3.70;;;15.90;67.10;;;;;;10444384;28;20072;-58
2022/11/19 21:45:20;;;;;;;6.22;3.60;;;15.90;66.90;;;;;;10447456;28;20021;-57
2022/11/19 21:50:20;;;;;;;4.97;3.83;;;15.90;66.60;;;;;;10426874;28;20043;-58
2022/11/19 21:55:22;;;;;;;6.70;3.70;;;15.90;66.50;;;;;;10443488;28;20104;-58
2022/11/19 22:00:22;;;;;;;5.57;3.50;;;15.90;66.50;;;;;;10444772;28;20017;-58
2022/11/19 22:05:24;;;;;;;6.18;4.03;;;16.00;66.20;;;;;;10458130;28;20025;-58
2022/11/19 22:10:27;;;;;;;5.47;3.67;;;15.90;66.10;;;;;;10445236;28;20029;-58
2022/11/19 22:15:27;;;;;;;6.45;4.10;;;16.00;66.00;;;;;;10444967;28;20477;-57
2022/11/19 22:20:28;;;;;;;4.55;3.65;;;15.90;65.90;;;;;;10444607;28;20086;-57
2022/11/19 22:25:28;;;;;;;6.00;3.38;;;15.90;65.80;;;;;;10478642;28;20120;-57
2022/11/19 22:30:29;;;;;;;6.57;3.67;;;15.90;65.50;;;;;;10445112;28;20104;-57
2022/11/19 22:35:30;;;;;;;6.20;3.50;;;16.00;65.30;;;;;;10444746;28;20084;-58
2022/11/19 22:40:30;;;;;;;5.93;3.25;;;15.90;65.30;;;;;;10444957;28;20116;-57
2022/11/19 22:45:31;;;;;;;4.22;3.13;;;15.90;65.30;;;;;;10444754;28;20488;-57
2022/11/19 22:50:32;;;;;;;6.63;3.95;;;15.90;65.10;;;;;;10444693;28;20017;-57
2022/11/19 22:55:36;;;;;;;4.78;4.13;;;16.00;65.00;;;;;;10444804;28;20047;-58
2022/11/19 23:00:55;;;;;;;5.55;3.22;;;15.90;64.80;;;;;;10443972;28;20036;-56
2022/11/19 23:05:58;;;;;;;5.03;3.08;;;15.90;64.80;;;;;;10451960;28;20029;-58
2022/11/19 23:11:02;;;;;;;4.45;3.67;;;15.90;64.60;;;;;;10452318;28;20033;-58
2022/11/19 23:16:11;;;;;;;4.40;3.50;;;15.90;64.60;;;;;;10453734;28;20060;-57
2022/11/19 23:21:15;;;;;;;4.55;3.45;;;15.90;64.50;;;;;;10451948;28;20041;-58
2022/11/19 23:26:24;;;;;;;3.80;3.35;;;15.90;64.30;;;;;;10451963;28;20116;-57
2022/11/19 23:31:30;;;;;;;4.57;3.40;;;15.90;64.20;;;;;;10435283;28;20025;-58
2022/11/19 23:36:35;;;;;;;4.00;3.40;;;16.00;64.00;;;;;;10451526;28;20049;-56
2022/11/19 23:41:36;;;;;;;4.20;3.08;;;16.00;63.80;;;;;;10450892;28;20028;-57
2022/11/19 23:46:37;;;;;;;3.78;2.80;;;16.00;63.70;;;;;;10450948;28;20108;-58
2022/11/19 23:51:38;;;;;;;4.55;3.08;;;16.00;63.70;;;;;;10450847;28;20470;-58
2022/11/19 23:56:39;;;;;;;4.25;2.97;;;16.00;63.60;;;;;;10452254;28;20120;-58
